This is the latest recevied weather packets stored in our database for station/object W9LRT-WX. If no packets are shown the sender has not sent any weather packets the latest 10 day(s).
| Time | Temp. | Humidity | Pressure | Rain* | Wind** | Luminosity | Snow |
|---|---|---|---|---|---|---|---|
| 1777813504 | 9.44° C | 60% | 1014.4 hPa | 0 mm | - | 362 W/m² | - |
| 1777812601 | 8.33° C | 62% | 1014.4 hPa | 0 mm | - | 279 W/m² | - |
| 1777811701 | 7.78° C | 63% | 1014.3 hPa | 0 mm | - | 218 W/m² | - |
| 1777810802 | 7.78° C | 64% | 1014.3 hPa | 0 mm | - | 169 W/m² | - |
| 1777809902 | 7.22° C | 64% | 1014.3 hPa | 0 mm | - | 148 W/m² | - |
| 1777809000 | 6.67° C | 66% | 1014.2 hPa | 0 mm | - | 137 W/m² | - |
| 1777808103 | 6.11° C | 66% | 1014.1 hPa | 0 mm | - | 86 W/m² | - |
| 1777807202 | 5.56° C | 67% | 1014.1 hPa | 0 mm | - | 47 W/m² | - |
| 1777806302 | 5.56° C | 68% | 1014.1 hPa | 0 mm | - | 21 W/m² | - |
| 1777805400 | 5.56° C | 68% | 1014.1 hPa | 0 mm | - | 9 W/m² | - |
| 1777804504 | 5.56° C | 68% | 1014 hPa | 0 mm | - | 0 W/m² | - |
| 1777803602 | 5.56° C | 68% | 1014 hPa | 0 mm | - | 0 W/m² | - |
| 1777802703 | 5.56° C | 68% | 1014 hPa | 0 mm | - | 0 W/m² | - |
| 1777801803 | 5° C | 69% | 1014.1 hPa | 0 mm | - | 0 W/m² | - |
| 1777800905 | 5° C | 69% | 1014.1 hPa | 0 mm | - | 0 W/m² | - |
| 1777800002 | 5° C | 69% | 1014.1 hPa | 0 mm | - | 0 W/m² | - |
| 1777799103 | 5° C | 70% | 1014.2 hPa | 0 mm | - | 0 W/m² | - |
| 1777798202 | 5° C | 71% | 1014.2 hPa | 0 mm | - | 0 W/m² | - |
| 1777797303 | 5° C | 71% | 1014.3 hPa | 0 mm | - | 0 W/m² | - |
| 1777796402 | 5° C | 70% | 1014.2 hPa | 0 mm | - | 0 W/m² | - |
| 1777795502 | 5° C | 70% | 1014.3 hPa | 0 mm | - | 0 W/m² | - |
| 1777794601 | 5° C | 69% | 1014.3 hPa | 0 mm | - | 0 W/m² | - |
| 1777793701 | 5° C | 69% | 1014.3 hPa | 0 mm | - | 0 W/m² | - |
| 1777792802 | 5° C | 69% | 1014.4 hPa | 0 mm | - | 0 W/m² | - |
| 1777791903 | 5.56° C | 68% | 1014.5 hPa | 0 mm | - | 0 W/m² | - |
* Rain latest hour (hover to see other rain measurements)
** Current wind speed in m/s (hover to see current wind gust speed)